createdAt,value
2022-09-05T00:00:31.550Z,78.12
2022-09-05T00:03:26.046Z,77.57
2022-09-05T00:06:06.574Z,77.66
2022-09-05T00:08:58.039Z,77.66
2022-09-05T00:11:44.140Z,78.11
2022-09-05T00:15:15.895Z,78.14
2022-09-05T00:20:04.356Z,78.44
2022-09-05T00:24:30.372Z,79.12
2022-09-05T00:24:42.511Z,79.41
2022-09-05T00:27:42.245Z,79.15
2022-09-05T00:31:06.052Z,79.49
2022-09-05T00:33:16.791Z,79.64
2022-09-05T00:36:08.853Z,80.33
2022-09-05T00:38:39.902Z,80.62
2022-09-05T00:41:10.814Z,80.53
2022-09-05T00:43:43.409Z,80.49
2022-09-05T00:46:32.075Z,80.13
2022-09-05T00:49:24.092Z,80.33
2022-09-05T00:52:15.722Z,79.99
2022-09-05T00:55:20.319Z,79.72
2022-09-05T00:58:00.488Z,79.96
2022-09-05T01:00:33.505Z,79.78
2022-09-05T01:03:22.197Z,80.15
2022-09-05T01:06:15.379Z,79.72
2022-09-05T01:08:44.876Z,79.53
2022-09-05T01:11:26.100Z,79.54
2022-09-05T01:14:40.429Z,79.79
2022-09-05T01:17:18.913Z,79.69
2022-09-05T01:20:19.303Z,79.88
2022-09-05T01:23:15.724Z,79.93
2022-09-05T01:26:04.119Z,80.80
2022-09-05T01:29:17.756Z,81.01
2022-09-05T01:31:51.282Z,80.51
2022-09-05T01:34:31.631Z,80.04
2022-09-05T01:37:34.001Z,79.99
2022-09-05T01:40:27.894Z,79.67
2022-09-05T01:43:00.947Z,80.04
2022-09-05T01:46:03.788Z,79.88
2022-09-05T01:49:00.051Z,79.85
2022-09-05T01:51:35.764Z,80.22
2022-09-05T01:54:41.466Z,80.57
2022-09-05T01:57:16.064Z,80.54
2022-09-05T02:00:07.373Z,80.36
2022-09-05T02:03:00.937Z,80.46
2022-09-05T02:06:06.553Z,81.41
2022-09-05T02:09:04.157Z,81.73
2022-09-05T02:12:03.259Z,81.04
2022-09-05T02:14:56.851Z,80.85
2022-09-05T02:17:50.609Z,80.99
2022-09-05T02:20:26.627Z,81.31
2022-09-05T02:23:40.435Z,81.23
2022-09-05T02:26:09.883Z,81.25
2022-09-05T02:28:42.958Z,81.07
2022-09-05T02:31:23.777Z,80.83
2022-09-05T02:34:01.840Z,80.99
2022-09-05T02:36:44.708Z,80.51
2022-09-05T02:45:00.641Z,80.05
2022-09-05T02:45:13.547Z,80.22
2022-09-05T02:45:43.832Z,80.86
2022-09-05T02:48:24.860Z,81.41
2022-09-05T02:57:27.276Z,81.43
2022-09-05T02:57:34.882Z,81.73
2022-09-05T02:57:36.861Z,81.62
2022-09-05T03:00:06.039Z,81.97
2022-09-05T03:02:50.568Z,82.13
2022-09-05T03:05:26.294Z,81.86
2022-09-05T03:08:11.662Z,82.21
2022-09-05T03:11:12.140Z,81.92
2022-09-05T03:14:21.179Z,82.25
2022-09-05T03:17:06.686Z,82.03
2022-09-05T03:19:46.614Z,81.78
2022-09-05T03:22:19.324Z,81.56
2022-09-05T03:24:55.790Z,81.78
2022-09-05T03:27:42.039Z,81.72
2022-09-05T03:30:12.232Z,81.99
2022-09-05T03:33:14.116Z,81.85
2022-09-05T03:36:12.472Z,81.68
2022-09-05T03:39:31.332Z,81.65
2022-09-05T03:42:37.825Z,81.60
2022-09-05T03:45:37.745Z,81.29
2022-09-05T03:48:53.883Z,81.30
2022-09-05T03:57:20.054Z,81.47
2022-09-05T03:57:20.204Z,81.48
2022-09-05T03:57:56.442Z,81.32
2022-09-05T04:00:34.034Z,81.41
2022-09-05T04:08:07.559Z,81.33
2022-09-05T04:08:28.658Z,81.12
2022-09-05T04:09:31.495Z,81.19
2022-09-05T04:12:18.574Z,81.60
2022-09-05T04:14:51.089Z,81.36
2022-09-05T04:17:42.752Z,81.51
2022-09-05T04:20:18.238Z,81.52
2022-09-05T04:23:10.341Z,81.48
2022-09-05T04:26:14.775Z,81.61
2022-09-05T04:29:04.102Z,81.35
2022-09-05T04:31:36.956Z,81.49
2022-09-05T04:34:22.702Z,81.06
2022-09-05T04:37:04.758Z,80.58
2022-09-05T04:39:33.328Z,80.77
2022-09-05T04:42:06.036Z,79.85
2022-09-05T04:44:44.957Z,79.32
2022-09-05T04:47:29.332Z,76.53
2022-09-05T04:50:08.488Z,73.25
2022-09-05T04:52:41.144Z,70.40
2022-09-05T04:55:14.589Z,68.00
2022-09-05T04:58:03.909Z,62.53
2022-09-05T05:06:01.272Z,60.45
2022-09-05T05:06:16.111Z,61.41
2022-09-05T05:06:47.530Z,61.50
2022-09-05T05:09:31.975Z,61.11
2022-09-05T05:17:55.596Z,61.10
2022-09-05T05:18:09.601Z,60.32
2022-09-05T05:18:37.771Z,62.26
2022-09-05T05:21:21.271Z,60.18
2022-09-05T05:24:09.480Z,56.75
2022-09-05T05:26:57.057Z,52.90
2022-09-05T05:29:47.191Z,50.33
2022-09-05T05:32:31.748Z,51.43
2022-09-05T05:35:19.549Z,50.04
2022-09-05T05:37:57.736Z,49.11
2022-09-05T05:40:31.696Z,50.13
2022-09-05T05:43:36.585Z,49.59
2022-09-05T05:46:03.976Z,49.29
2022-09-05T05:48:40.591Z,48.10
2022-09-05T05:51:34.723Z,46.34
2022-09-05T05:54:33.019Z,42.25
2022-09-05T05:57:18.542Z,41.21
2022-09-05T06:00:01.219Z,44.85
2022-09-05T06:03:01.875Z,45.89
2022-09-05T06:05:42.904Z,46.52
2022-09-05T06:12:54.897Z,49.07
2022-09-05T06:14:58.421Z,50.64
2022-09-05T06:15:11.540Z,48.81
2022-09-05T06:18:19.329Z,46.90
2022-09-05T06:22:08.301Z,47.64
2022-09-05T06:23:53.366Z,47.45
2022-09-05T06:26:36.152Z,45.91
2022-09-05T06:29:21.354Z,46.65
2022-09-05T06:31:53.824Z,47.20
2022-09-05T06:34:35.152Z,43.82
2022-09-05T06:37:03.284Z,39.68
2022-09-05T06:39:48.858Z,40.58
2022-09-05T06:42:42.713Z,39.81
2022-09-05T06:45:28.447Z,41.60
2022-09-05T06:48:13.640Z,46.89
2022-09-05T06:51:16.478Z,42.61
2022-09-05T06:54:01.273Z,43.89
2022-09-05T06:56:47.265Z,45.89
2022-09-05T06:59:35.807Z,44.71
2022-09-05T07:02:15.974Z,42.65
2022-09-05T07:05:37.370Z,42.61
2022-09-05T07:08:34.606Z,42.14
2022-09-05T07:11:32.171Z,41.16
2022-09-05T07:14:04.718Z,43.60
2022-09-05T07:16:53.688Z,42.77
2022-09-05T07:19:30.209Z,41.94
2022-09-05T07:22:29.458Z,39.60
2022-09-05T07:25:09.167Z,43.24
2022-09-05T07:28:28.302Z,44.10
2022-09-05T07:30:53.707Z,45.30
2022-09-05T07:33:26.381Z,42.74
2022-09-05T07:35:58.232Z,44.39
2022-09-05T07:38:52.414Z,43.34
2022-09-05T07:41:29.313Z,40.74
2022-09-05T07:44:23.341Z,43.69
2022-09-05T07:46:56.636Z,44.64
2022-09-05T07:49:28.119Z,43.01
2022-09-05T07:56:47.473Z,41.87
2022-09-05T07:56:52.222Z,45.03
2022-09-05T07:57:52.289Z,42.22
2022-09-05T08:00:25.776Z,42.81
2022-09-05T08:03:01.132Z,42.07
2022-09-05T08:05:37.393Z,41.23
2022-09-05T08:08:13.836Z,41.47
2022-09-05T08:11:22.445Z,42.56
2022-09-05T08:13:46.461Z,39.38
2022-09-05T08:16:21.692Z,39.97
2022-09-05T08:19:27.332Z,41.85
2022-09-05T08:21:57.812Z,40.28
2022-09-05T08:24:41.154Z,39.69
2022-09-05T08:27:17.158Z,39.60
2022-09-05T08:30:24.807Z,41.08
2022-09-05T08:33:11.288Z,40.66
2022-09-05T08:35:41.944Z,41.19
2022-09-05T08:38:09.248Z,41.26
2022-09-05T08:40:58.211Z,39.77
2022-09-05T08:46:40.510Z,42.20
2022-09-05T08:46:58.361Z,40.70
2022-09-05T08:49:39.488Z,40.52
2022-09-05T08:52:37.649Z,40.27
2022-09-05T08:55:22.780Z,41.13
2022-09-05T08:58:27.854Z,41.43
2022-09-05T09:01:19.229Z,41.42
2022-09-05T09:04:17.127Z,41.70
2022-09-05T09:07:51.478Z,41.24
2022-09-05T09:10:25.400Z,42.72
2022-09-05T09:13:28.342Z,41.11
2022-09-05T09:16:05.096Z,41.30
2022-09-05T09:18:47.525Z,41.55
2022-09-05T09:21:46.437Z,42.42
2022-09-05T09:24:35.796Z,43.35
2022-09-05T09:27:09.354Z,44.27
2022-09-05T09:29:40.182Z,43.88
2022-09-05T09:32:21.538Z,45.01
2022-09-05T09:35:05.511Z,43.96
2022-09-05T09:38:00.003Z,44.36
2022-09-05T09:40:31.899Z,43.41
2022-09-05T09:43:14.313Z,43.86
2022-09-05T09:45:41.510Z,43.80
2022-09-05T09:48:12.227Z,41.71
2022-09-05T09:51:04.762Z,39.63
2022-09-05T09:54:08.580Z,38.79
2022-09-05T09:57:03.015Z,37.66
2022-09-05T09:59:54.487Z,40.19
2022-09-05T10:07:13.365Z,41.48
2022-09-05T10:10:49.030Z,39.41
2022-09-05T10:10:54.447Z,42.11
2022-09-05T10:12:03.275Z,41.01
2022-09-05T10:14:56.803Z,40.48
2022-09-05T10:17:50.920Z,41.64
2022-09-05T10:20:31.797Z,42.35
2022-09-05T10:23:16.863Z,42.85
2022-09-05T10:25:58.179Z,42.62
2022-09-05T10:28:33.751Z,40.84
2022-09-05T10:32:34.699Z,41.74
2022-09-05T10:35:14.708Z,43.68
2022-09-05T10:37:13.640Z,40.89
2022-09-05T10:39:54.100Z,41.42
2022-09-05T10:43:00.606Z,40.85
2022-09-05T10:45:39.187Z,40.98
2022-09-05T10:48:13.699Z,40.99
2022-09-05T10:50:48.531Z,39.84
2022-09-05T10:53:31.103Z,41.32
2022-09-05T10:56:14.894Z,42.15
2022-09-05T11:02:16.131Z,43.67
2022-09-05T11:02:27.375Z,45.71
2022-09-05T11:04:58.684Z,42.95
2022-09-05T11:07:54.123Z,42.68
2022-09-05T11:10:28.706Z,43.39
2022-09-05T11:13:33.973Z,41.29
2022-09-05T11:16:28.593Z,41.95
2022-09-05T11:19:25.641Z,43.41
2022-09-05T11:22:22.558Z,42.83
2022-09-05T11:25:02.489Z,42.98
2022-09-05T11:27:32.495Z,42.97
2022-09-05T11:30:29.975Z,42.41
2022-09-05T11:36:56.785Z,42.12
2022-09-05T11:40:04.229Z,41.88
2022-09-05T11:40:28.819Z,41.87
2022-09-05T11:43:09.217Z,41.79
2022-09-05T11:46:00.655Z,42.51
2022-09-05T11:48:37.495Z,42.48
2022-09-05T11:51:35.363Z,43.20
2022-09-05T11:54:32.728Z,42.78
2022-09-05T11:57:33.118Z,41.20
2022-09-05T12:00:32.591Z,41.86
2022-09-05T12:03:59.304Z,40.39
2022-09-05T12:06:36.392Z,40.64
2022-09-05T12:09:20.296Z,40.40
2022-09-05T12:12:39.378Z,39.92
2022-09-05T12:15:26.657Z,40.06
2022-09-05T12:18:02.583Z,40.49
2022-09-05T12:20:43.332Z,40.77
2022-09-05T12:23:53.728Z,39.68
2022-09-05T12:27:41.541Z,40.91
2022-09-05T12:29:35.240Z,41.46
2022-09-05T12:33:45.444Z,39.48
2022-09-05T12:36:11.620Z,40.62
2022-09-05T12:40:53.695Z,39.00
2022-09-05T12:41:44.373Z,38.75
2022-09-05T12:44:45.359Z,39.10
2022-09-05T12:47:18.518Z,39.29
2022-09-05T12:50:14.851Z,40.19
2022-09-05T12:52:50.338Z,40.97
2022-09-05T12:55:17.214Z,40.19
2022-09-05T13:01:20.370Z,40.64
2022-09-05T13:03:14.742Z,41.21
2022-09-05T13:03:34.808Z,41.72
2022-09-05T13:06:08.852Z,41.40
2022-09-05T13:08:58.972Z,40.79
2022-09-05T13:14:46.841Z,40.84
2022-09-05T13:14:57.930Z,40.49
2022-09-05T13:17:14.076Z,40.20
2022-09-05T13:19:51.378Z,39.90
2022-09-05T13:22:25.011Z,39.75
2022-09-05T13:25:06.586Z,39.85
2022-09-05T13:27:40.794Z,39.84
2022-09-05T13:32:08.901Z,39.87
2022-09-05T13:38:04.621Z,39.65
2022-09-05T13:38:28.870Z,40.08
2022-09-05T13:39:01.041Z,38.57
2022-09-05T13:41:43.344Z,38.73
2022-09-05T13:44:26.286Z,39.58
2022-09-05T13:47:29.407Z,38.81
2022-09-05T13:50:20.009Z,39.29
2022-09-05T13:52:53.614Z,39.21
2022-09-05T13:55:33.550Z,40.51
2022-09-05T13:58:07.509Z,39.29
2022-09-05T14:00:40.244Z,39.60
2022-09-05T14:03:38.731Z,39.52
2022-09-05T14:06:47.717Z,39.03
2022-09-05T14:09:48.905Z,39.42
2022-09-05T14:12:44.976Z,39.60
2022-09-05T14:15:24.927Z,38.73
2022-09-05T14:18:19.903Z,39.02
2022-09-05T14:21:13.135Z,38.47
2022-09-05T14:24:05.116Z,39.05
2022-09-05T14:26:46.142Z,39.10
2022-09-05T14:29:22.046Z,40.05
2022-09-05T14:37:36.650Z,39.11
2022-09-05T14:38:01.063Z,38.96
2022-09-05T14:38:15.143Z,38.41
2022-09-05T14:41:24.212Z,38.34
2022-09-05T14:44:18.591Z,39.21
2022-09-05T14:47:32.341Z,38.14
2022-09-05T14:50:27.713Z,38.26
2022-09-05T14:56:24.471Z,38.71
2022-09-05T15:02:41.538Z,38.84
2022-09-05T15:02:52.714Z,38.53
2022-09-05T15:04:38.544Z,38.80
2022-09-05T15:07:19.891Z,38.32
2022-09-05T15:12:19.834Z,38.60
2022-09-05T15:13:02.478Z,38.73
2022-09-05T15:15:39.298Z,38.54
2022-09-05T15:18:18.066Z,38.06
2022-09-05T15:20:47.219Z,37.77
2022-09-05T15:23:26.074Z,37.90
2022-09-05T15:26:07.019Z,38.43
2022-09-05T15:28:35.490Z,38.48
2022-09-05T15:31:12.517Z,39.28
2022-09-05T15:33:40.973Z,39.57
2022-09-05T15:36:13.468Z,39.55
2022-09-05T15:38:55.499Z,39.62
2022-09-05T15:41:26.674Z,39.59
2022-09-05T15:44:09.596Z,39.53
2022-09-05T15:46:51.469Z,40.13
2022-09-05T15:49:35.912Z,40.10
2022-09-05T15:52:09.660Z,39.72
2022-09-05T15:54:49.540Z,40.47
2022-09-05T15:57:24.602Z,40.11
2022-09-05T15:59:57.281Z,40.38
2022-09-05T16:02:33.118Z,40.36
2022-09-05T16:10:36.698Z,40.00
2022-09-05T16:10:43.754Z,39.95
2022-09-05T16:11:59.514Z,40.24
2022-09-05T16:14:23.152Z,40.29
2022-09-05T16:23:18.275Z,41.14
2022-09-05T16:23:20.806Z,40.70
2022-09-05T16:23:27.191Z,40.87
2022-09-05T16:25:40.732Z,41.31
2022-09-05T16:28:23.088Z,41.42
2022-09-05T16:30:59.323Z,41.51
2022-09-05T16:33:29.653Z,41.53
2022-09-05T16:36:05.892Z,41.56
2022-09-05T16:38:49.811Z,41.90
2022-09-05T16:41:36.004Z,42.01
2022-09-05T16:44:49.127Z,42.35
2022-09-05T16:47:27.808Z,42.72
2022-09-05T16:50:16.505Z,42.89
2022-09-05T16:52:53.304Z,43.02
2022-09-05T16:55:29.661Z,43.49
2022-09-05T16:58:08.939Z,43.64
2022-09-05T17:01:06.147Z,43.44
2022-09-05T17:03:50.025Z,43.80
2022-09-05T17:06:26.179Z,43.70
2022-09-05T17:09:00.838Z,43.96
2022-09-05T17:12:00.455Z,44.22
2022-09-05T17:14:35.313Z,44.47
2022-09-05T17:17:36.171Z,44.69
2022-09-05T17:20:07.107Z,44.73
2022-09-05T17:25:11.047Z,44.99
2022-09-05T17:29:29.820Z,45.24
2022-09-05T17:29:45.638Z,45.09
2022-09-05T17:31:55.715Z,45.39
2022-09-05T17:34:47.400Z,45.54
2022-09-05T17:37:38.424Z,45.78
2022-09-05T17:40:11.210Z,46.15
2022-09-05T17:42:52.836Z,46.38
2022-09-05T17:45:27.144Z,46.82
2022-09-05T17:47:57.986Z,47.21
2022-09-05T17:50:33.302Z,47.87
2022-09-05T17:53:26.759Z,48.77
2022-09-05T17:55:52.037Z,49.48
2022-09-05T17:58:31.877Z,50.02
2022-09-05T18:01:26.771Z,50.66
2022-09-05T18:04:05.491Z,51.28
2022-09-05T18:06:52.853Z,51.79
2022-09-05T18:09:40.035Z,52.31
2022-09-05T18:12:28.635Z,52.89
2022-09-05T18:15:07.561Z,53.07
2022-09-05T18:17:47.590Z,53.37
2022-09-05T18:23:43.684Z,54.08
2022-09-05T18:26:21.431Z,54.39
2022-09-05T18:28:55.565Z,54.71
2022-09-05T18:31:40.830Z,54.98
2022-09-05T18:34:32.130Z,55.24
2022-09-05T18:36:59.243Z,55.40
2022-09-05T18:39:27.093Z,55.74
2022-09-05T18:42:25.912Z,56.03
2022-09-05T18:45:18.369Z,56.26
2022-09-05T18:48:00.165Z,56.35
2022-09-05T18:50:36.941Z,56.44
2022-09-05T18:53:12.749Z,56.83
2022-09-05T18:56:13.055Z,57.14
2022-09-05T18:59:10.229Z,57.54
2022-09-05T19:01:40.309Z,57.75
2022-09-05T19:04:40.609Z,58.07
2022-09-05T19:07:12.364Z,58.12
2022-09-05T19:09:57.611Z,58.25
2022-09-05T19:12:33.340Z,58.62
2022-09-05T19:15:08.541Z,58.56
2022-09-05T19:17:38.477Z,59.37
2022-09-05T19:20:30.938Z,59.55
2022-09-05T19:23:11.947Z,59.58
2022-09-05T19:25:45.318Z,59.28
2022-09-05T19:33:31.353Z,59.47
2022-09-05T19:36:53.680Z,59.23
2022-09-05T19:37:10.673Z,59.63
2022-09-05T19:43:42.807Z,59.91
2022-09-05T19:47:31.210Z,59.83
2022-09-05T19:47:44.059Z,59.92
2022-09-05T19:48:35.099Z,60.16
2022-09-05T19:51:17.889Z,60.25
2022-09-05T19:53:59.679Z,60.28
2022-09-05T19:56:43.707Z,60.62
2022-09-05T19:59:22.438Z,60.31
2022-09-05T20:01:51.878Z,60.64
2022-09-05T20:04:20.025Z,61.05
2022-09-05T20:06:48.992Z,61.53
2022-09-05T20:09:27.174Z,61.58
2022-09-05T20:11:58.702Z,61.66
2022-09-05T20:14:31.097Z,61.95
2022-09-05T20:17:17.201Z,62.03
2022-09-05T20:19:45.141Z,62.26
2022-09-05T20:22:46.859Z,62.26
2022-09-05T20:25:19.937Z,62.56
2022-09-05T20:28:07.099Z,62.53
2022-09-05T20:30:41.420Z,63.15
2022-09-05T20:33:20.304Z,63.53
2022-09-05T20:42:47.117Z,63.49
2022-09-05T20:43:11.642Z,63.57
2022-09-05T20:43:27.531Z,64.16
2022-09-05T20:44:24.775Z,64.27
2022-09-05T20:50:08.313Z,64.14
2022-09-05T20:54:10.263Z,64.40
2022-09-05T20:54:16.434Z,64.51
2022-09-05T20:55:45.496Z,64.71
2022-09-05T20:58:31.600Z,64.75
2022-09-05T21:01:21.908Z,64.77
2022-09-05T21:03:59.610Z,64.89
2022-09-05T21:06:36.322Z,64.83
2022-09-05T21:09:25.551Z,64.88
2022-09-05T21:11:55.937Z,65.33
2022-09-05T21:14:24.418Z,65.38
2022-09-05T21:17:00.272Z,65.45
2022-09-05T21:19:35.699Z,65.74
2022-09-05T21:22:17.637Z,65.65
2022-09-05T21:24:46.635Z,65.67
2022-09-05T21:27:21.569Z,65.43
2022-09-05T21:29:54.358Z,65.63
2022-09-05T21:32:38.200Z,66.01
2022-09-05T21:35:15.499Z,66.18
2022-09-05T21:37:56.678Z,66.57
2022-09-05T21:40:23.718Z,66.56
2022-09-05T21:47:33.318Z,66.85
2022-09-05T21:47:39.315Z,66.45
2022-09-05T21:48:25.377Z,66.78
2022-09-05T21:50:58.410Z,66.46
2022-09-05T21:55:44.196Z,66.25
2022-09-05T21:59:19.473Z,66.66
2022-09-05T21:59:36.802Z,66.64
2022-09-05T22:02:07.337Z,66.75
2022-09-05T22:04:37.201Z,66.82
2022-09-05T22:07:32.011Z,66.52
2022-09-05T22:09:59.828Z,66.69
2022-09-05T22:12:31.445Z,66.53
2022-09-05T22:15:07.332Z,66.86
2022-09-05T22:17:47.220Z,67.01
2022-09-05T22:20:16.750Z,67.01
2022-09-05T22:22:46.874Z,67.27
2022-09-05T22:25:27.774Z,67.65
2022-09-05T22:28:04.756Z,67.46
2022-09-05T22:30:32.418Z,67.33
2022-09-05T22:32:59.464Z,67.32
2022-09-05T22:35:28.697Z,67.11
2022-09-05T22:38:05.989Z,67.29
2022-09-05T22:40:36.701Z,67.41
2022-09-05T22:43:07.003Z,67.19
2022-09-05T22:45:35.765Z,67.42
2022-09-05T22:48:13.885Z,67.65
2022-09-05T22:50:42.225Z,67.17
2022-09-05T22:53:10.556Z,66.89
2022-09-05T22:55:39.998Z,66.52
2022-09-05T22:58:08.780Z,67.13
2022-09-05T23:00:35.730Z,67.15
2022-09-05T23:03:04.930Z,67.23
2022-09-05T23:05:32.807Z,66.86
2022-09-05T23:08:00.708Z,66.75
2022-09-05T23:10:29.201Z,66.47
2022-09-05T23:12:56.309Z,66.39
2022-09-05T23:15:23.497Z,66.20
2022-09-05T23:17:58.613Z,66.80
2022-09-05T23:20:29.016Z,67.11
2022-09-05T23:22:56.750Z,67.08
2022-09-05T23:25:24.324Z,67.27
2022-09-05T23:27:51.161Z,66.46
2022-09-05T23:30:18.269Z,66.23
2022-09-05T23:32:46.641Z,66.89
2022-09-05T23:35:14.024Z,66.63
2022-09-05T23:37:48.345Z,66.56
2022-09-05T23:40:17.900Z,66.65
2022-09-05T23:43:01.346Z,67.32
2022-09-05T23:45:28.661Z,67.31
2022-09-05T23:47:57.738Z,67.18
2022-09-05T23:50:25.318Z,67.06
2022-09-05T23:52:52.088Z,67.52
2022-09-05T23:55:21.114Z,67.84
2022-09-05T23:57:47.949Z,68.05
